createdAt,value
2022-09-07T00:00:23.640Z,98.99
2022-09-07T00:01:23.604Z,99.59
2022-09-07T00:02:23.603Z,99.79
2022-09-07T00:03:23.696Z,99.99
2022-09-07T00:04:23.659Z,99.99
2022-09-07T00:05:23.572Z,99.99
2022-09-07T00:06:23.545Z,99.99
2022-09-07T00:07:23.533Z,99.99
2022-09-07T00:08:23.526Z,99.99
2022-09-07T00:09:23.513Z,99.99
2022-09-07T00:10:23.524Z,99.99
2022-09-07T00:11:23.485Z,99.99
2022-09-07T00:12:23.485Z,99.99
2022-09-07T00:13:23.474Z,99.99
2022-09-07T00:14:23.449Z,99.99
2022-09-07T00:15:23.465Z,99.99
2022-09-07T00:16:23.542Z,99.99
2022-09-07T00:17:23.438Z,99.99
2022-09-07T00:18:23.444Z,99.99
2022-09-07T00:19:23.443Z,99.99
2022-09-07T00:20:23.436Z,99.99
2022-09-07T00:21:23.398Z,99.99
2022-09-07T00:22:23.359Z,99.99
2022-09-07T00:23:23.401Z,99.99
2022-09-07T00:24:23.327Z,99.99
2022-09-07T00:25:23.327Z,99.99
2022-09-07T00:26:23.308Z,99.99
2022-09-07T00:27:23.297Z,99.99
2022-09-07T00:28:23.298Z,99.99
2022-09-07T00:29:23.279Z,99.99
2022-09-07T00:30:23.271Z,99.99
2022-09-07T00:31:23.312Z,99.99
2022-09-07T00:32:23.246Z,99.99
2022-09-07T00:33:23.258Z,99.99
2022-09-07T00:34:23.218Z,99.99
2022-09-07T00:35:23.218Z,99.99
2022-09-07T00:36:23.192Z,99.99
2022-09-07T00:37:23.209Z,99.99
2022-09-07T00:38:23.199Z,99.99
2022-09-07T00:39:23.161Z,99.99
2022-09-07T00:40:23.182Z,99.99
2022-09-07T00:41:23.144Z,99.99
2022-09-07T00:42:23.131Z,99.99
2022-09-07T00:43:23.122Z,99.99
2022-09-07T00:44:23.112Z,99.99
2022-09-07T00:45:23.092Z,99.99
2022-09-07T00:46:23.314Z,99.99
2022-09-07T00:47:23.091Z,99.99
2022-09-07T00:48:23.195Z,99.99
2022-09-07T00:49:23.043Z,99.99
2022-09-07T00:50:23.053Z,99.99
2022-09-07T00:51:23.043Z,99.99
2022-09-07T00:52:23.013Z,99.99
2022-09-07T00:53:23.003Z,99.99
2022-09-07T00:54:23.004Z,99.99
2022-09-07T00:55:22.986Z,99.99
2022-09-07T00:56:22.989Z,99.99
2022-09-07T00:57:22.955Z,99.99
2022-09-07T00:58:22.957Z,99.99
2022-09-07T00:59:22.937Z,99.99
2022-09-07T01:00:22.923Z,99.99
2022-09-07T01:01:22.994Z,99.99
2022-09-07T01:02:22.935Z,99.99
2022-09-07T01:03:22.886Z,99.99
2022-09-07T01:04:22.886Z,99.99
2022-09-07T01:05:22.883Z,99.99
2022-09-07T01:06:22.856Z,99.99
2022-09-07T01:07:22.838Z,99.99
2022-09-07T01:08:22.850Z,99.99
2022-09-07T01:09:22.829Z,99.99
2022-09-07T01:10:22.798Z,99.99
2022-09-07T01:11:22.807Z,99.99
2022-09-07T01:12:22.788Z,99.99
2022-09-07T01:13:22.788Z,99.99
2022-09-07T01:14:22.769Z,99.99
2022-09-07T01:15:22.756Z,99.99
2022-09-07T01:16:22.838Z,99.99
2022-09-07T01:17:22.727Z,99.99
2022-09-07T01:18:22.729Z,99.99
2022-09-07T01:19:22.718Z,99.99
2022-09-07T01:20:22.699Z,99.99
2022-09-07T01:21:22.689Z,99.99
2022-09-07T01:22:22.681Z,99.99
2022-09-07T01:23:22.659Z,99.99
2022-09-07T01:24:22.639Z,99.99
2022-09-07T01:25:22.663Z,99.99
2022-09-07T01:26:22.629Z,99.99
2022-09-07T01:27:22.610Z,99.99
2022-09-07T01:28:22.600Z,99.99
2022-09-07T01:29:22.594Z,99.99
2022-09-07T01:30:22.578Z,99.99
2022-09-07T01:31:22.594Z,99.99
2022-09-07T01:32:22.571Z,99.99
2022-09-07T01:33:22.542Z,99.99
2022-09-07T01:34:22.523Z,99.99
2022-09-07T01:35:22.526Z,99.99
2022-09-07T01:36:22.492Z,99.99
2022-09-07T01:37:22.493Z,99.99
2022-09-07T01:38:22.483Z,99.99
2022-09-07T01:39:22.463Z,99.99
2022-09-07T01:40:22.463Z,99.99
2022-09-07T01:41:22.434Z,99.99
2022-09-07T01:42:22.444Z,99.99
2022-09-07T01:43:22.434Z,99.99
2022-09-07T01:44:22.404Z,99.99
2022-09-07T01:45:22.403Z,99.99
2022-09-07T01:46:22.414Z,99.99
2022-09-07T01:47:22.379Z,99.99
2022-09-07T01:48:22.355Z,99.99
2022-09-07T01:49:22.374Z,99.99
2022-09-07T01:50:22.365Z,99.99
2022-09-07T01:51:22.337Z,99.99
2022-09-07T01:52:22.327Z,99.99
2022-09-07T01:53:22.306Z,99.99
2022-09-07T01:54:22.297Z,99.99
2022-09-07T01:55:22.276Z,99.99
2022-09-07T01:56:22.280Z,99.99
2022-09-07T01:57:22.257Z,99.99
2022-09-07T01:58:22.239Z,99.99
2022-09-07T01:59:22.246Z,99.99
2022-09-07T02:00:22.241Z,99.99
2022-09-07T02:01:22.242Z,99.99
2022-09-07T02:02:22.231Z,99.99
2022-09-07T02:03:22.198Z,99.99
2022-09-07T02:04:22.183Z,99.99
2022-09-07T02:05:22.181Z,99.99
2022-09-07T02:06:22.169Z,99.99
2022-09-07T02:07:22.140Z,99.99
2022-09-07T02:08:22.140Z,99.99
2022-09-07T02:09:22.111Z,99.99
2022-09-07T02:10:22.120Z,99.99
2022-09-07T02:11:22.091Z,99.99
2022-09-07T02:12:22.080Z,99.99
2022-09-07T02:13:22.088Z,99.99
2022-09-07T02:14:22.070Z,99.99
2022-09-07T02:15:22.051Z,99.99
2022-09-07T02:16:22.105Z,99.99
2022-09-07T02:17:22.035Z,99.99
2022-09-07T02:18:22.030Z,99.99
2022-09-07T02:19:22.007Z,99.99
2022-09-07T02:20:22.002Z,99.99
2022-09-07T02:21:21.982Z,99.99
2022-09-07T02:22:21.961Z,99.99
2022-09-07T02:23:21.997Z,99.99
2022-09-07T02:24:21.944Z,99.99
2022-09-07T02:25:21.938Z,99.99
2022-09-07T02:26:21.912Z,99.99
2022-09-07T02:27:21.928Z,99.99
2022-09-07T02:28:21.895Z,99.99
2022-09-07T02:29:21.895Z,99.99
2022-09-07T02:30:21.893Z,99.99
2022-09-07T02:31:21.925Z,99.99
2022-09-07T02:32:21.855Z,99.99
2022-09-07T02:33:21.844Z,99.99
2022-09-07T02:34:21.852Z,99.99
2022-09-07T02:35:21.815Z,99.99
2022-09-07T02:36:21.796Z,99.99
2022-09-07T02:37:21.816Z,99.99
2022-09-07T02:38:21.795Z,99.99
2022-09-07T02:39:21.786Z,99.99
2022-09-07T02:40:21.764Z,99.99
2022-09-07T02:41:21.759Z,99.99
2022-09-07T02:42:21.756Z,99.99
2022-09-07T02:43:21.737Z,99.99
2022-09-07T02:44:21.821Z,99.99
2022-09-07T02:45:21.698Z,99.99
2022-09-07T02:46:21.736Z,99.99
2022-09-07T02:47:21.681Z,99.99
2022-09-07T02:48:21.669Z,99.99
2022-09-07T02:49:21.658Z,99.99
2022-09-07T02:50:21.655Z,99.99
2022-09-07T02:51:21.638Z,99.99
2022-09-07T02:52:21.620Z,99.99
2022-09-07T02:53:21.609Z,99.99
2022-09-07T02:54:21.611Z,99.99
2022-09-07T02:55:21.627Z,99.99
2022-09-07T02:56:21.576Z,99.99
2022-09-07T02:57:21.553Z,99.99
2022-09-07T02:58:21.599Z,99.99
2022-09-07T02:59:21.549Z,99.99
2022-09-07T03:00:21.522Z,99.99
2022-09-07T03:01:21.608Z,99.99
2022-09-07T03:02:21.570Z,99.99
2022-09-07T03:03:21.490Z,99.99
2022-09-07T03:04:21.652Z,99.99
2022-09-07T03:05:21.473Z,99.99
2022-09-07T03:06:21.482Z,99.99
2022-09-07T03:07:21.434Z,99.99
2022-09-07T03:08:21.440Z,99.99
2022-09-07T03:09:21.445Z,99.99
2022-09-07T03:10:21.418Z,99.99
2022-09-07T03:11:21.396Z,99.99
2022-09-07T03:12:21.445Z,99.99
2022-09-07T03:13:22.401Z,99.99
2022-09-07T03:14:21.375Z,99.99
2022-09-07T03:15:21.372Z,99.99
2022-09-07T03:16:21.401Z,99.99
2022-09-07T03:17:21.361Z,99.99
2022-09-07T03:18:21.314Z,99.99
2022-09-07T03:19:21.326Z,99.99
2022-09-07T03:20:21.294Z,99.99
2022-09-07T03:21:21.275Z,99.99
2022-09-07T03:22:21.269Z,99.99
2022-09-07T03:23:21.292Z,99.99
2022-09-07T03:24:21.242Z,99.99
2022-09-07T03:25:21.245Z,99.99
2022-09-07T03:26:21.227Z,99.99
2022-09-07T03:27:21.206Z,99.99
2022-09-07T03:28:21.214Z,99.99
2022-09-07T03:29:21.264Z,99.99
2022-09-07T03:30:21.176Z,99.99
2022-09-07T03:31:21.199Z,99.99
2022-09-07T03:32:21.160Z,99.99
2022-09-07T03:33:21.168Z,99.99
2022-09-07T03:34:21.190Z,99.99
2022-09-07T03:35:21.117Z,99.99
2022-09-07T03:36:21.109Z,99.99
2022-09-07T03:37:21.088Z,99.99
2022-09-07T03:38:21.088Z,99.99
2022-09-07T03:39:21.169Z,99.99
2022-09-07T03:40:21.059Z,99.99
2022-09-07T03:41:21.049Z,99.99
2022-09-07T03:42:21.041Z,99.99
2022-09-07T03:43:21.042Z,99.99
2022-09-07T03:44:21.026Z,99.99
2022-09-07T03:45:20.998Z,99.99
2022-09-07T03:46:21.179Z,99.99
2022-09-07T03:47:20.978Z,99.99
2022-09-07T03:48:20.974Z,99.99
2022-09-07T03:49:20.950Z,99.99
2022-09-07T03:50:20.977Z,99.99
2022-09-07T03:51:20.922Z,99.99
2022-09-07T03:52:20.912Z,99.99
2022-09-07T03:53:20.920Z,99.99
2022-09-07T03:54:20.902Z,99.99
2022-09-07T03:55:20.882Z,99.99
2022-09-07T03:56:20.882Z,99.99
2022-09-07T03:57:20.862Z,99.99
2022-09-07T03:58:20.888Z,99.99
2022-09-07T03:59:20.832Z,99.99
2022-09-07T04:00:20.833Z,99.99
2022-09-07T04:01:20.861Z,99.99
2022-09-07T04:02:20.818Z,99.99
2022-09-07T04:03:20.806Z,99.99
2022-09-07T04:04:20.793Z,99.99
2022-09-07T04:05:20.773Z,99.99
2022-09-07T04:06:20.767Z,99.99
2022-09-07T04:07:20.785Z,99.99
2022-09-07T04:08:20.746Z,99.99
2022-09-07T04:09:20.723Z,99.99
2022-09-07T04:10:20.717Z,99.99
2022-09-07T04:11:20.721Z,99.99
2022-09-07T04:12:20.675Z,99.99
2022-09-07T04:13:20.693Z,99.99
2022-09-07T04:14:20.665Z,99.99
2022-09-07T04:15:20.647Z,99.99
2022-09-07T04:16:20.679Z,99.99
2022-09-07T04:17:20.639Z,99.99
2022-09-07T04:18:20.632Z,99.99
2022-09-07T04:19:20.596Z,99.99
2022-09-07T04:20:20.598Z,99.99
2022-09-07T04:21:20.637Z,99.99
2022-09-07T04:22:20.568Z,99.99
2022-09-07T04:23:20.561Z,99.99
2022-09-07T04:24:20.565Z,99.99
2022-09-07T04:25:20.518Z,99.99
2022-09-07T04:26:20.528Z,99.99
2022-09-07T04:27:20.506Z,99.99
2022-09-07T04:28:20.525Z,99.99
2022-09-07T04:29:20.499Z,99.99
2022-09-07T04:30:20.459Z,99.99
2022-09-07T04:31:20.513Z,99.99
2022-09-07T04:32:20.430Z,99.99
2022-09-07T04:33:20.428Z,99.99
2022-09-07T04:34:20.428Z,99.99
2022-09-07T04:35:20.400Z,99.99
2022-09-07T04:36:20.390Z,99.99
2022-09-07T04:37:20.385Z,99.99
2022-09-07T04:38:20.383Z,99.99
2022-09-07T04:39:20.359Z,99.99
2022-09-07T04:40:20.345Z,99.99
2022-09-07T04:41:20.332Z,99.99
2022-09-07T04:42:20.361Z,99.99
2022-09-07T04:43:20.320Z,99.99
2022-09-07T04:44:20.291Z,99.99
2022-09-07T04:45:20.293Z,99.99
2022-09-07T04:46:20.302Z,99.99
2022-09-07T04:47:20.280Z,99.99
2022-09-07T04:48:20.271Z,99.99
2022-09-07T04:49:20.242Z,99.99
2022-09-07T04:50:20.214Z,99.99
2022-09-07T04:51:20.225Z,99.99
2022-09-07T04:52:20.201Z,99.99
2022-09-07T04:53:20.193Z,99.99
2022-09-07T04:54:20.192Z,99.99
2022-09-07T04:55:20.175Z,99.99
2022-09-07T04:56:20.162Z,99.99
2022-09-07T04:57:20.144Z,99.99
2022-09-07T04:58:20.152Z,99.99
2022-09-07T04:59:20.375Z,99.99
2022-09-07T05:00:20.108Z,99.99
2022-09-07T05:01:20.154Z,99.99
2022-09-07T05:02:20.159Z,99.99
2022-09-07T05:03:20.086Z,99.99
2022-09-07T05:04:20.075Z,99.99
2022-09-07T05:05:20.056Z,99.99
2022-09-07T05:06:20.036Z,99.99
2022-09-07T05:07:20.026Z,99.99
2022-09-07T05:08:20.037Z,99.99
2022-09-07T05:09:20.008Z,99.99
2022-09-07T05:10:20.001Z,99.99
2022-09-07T05:11:21.999Z,99.99
2022-09-07T05:12:20.969Z,99.99
2022-09-07T05:13:19.988Z,99.99
2022-09-07T05:14:19.955Z,99.99
2022-09-07T05:15:19.930Z,99.99
2022-09-07T05:16:19.972Z,99.99
2022-09-07T05:17:19.915Z,99.99
2022-09-07T05:18:19.921Z,99.99
2022-09-07T05:19:19.902Z,99.99
2022-09-07T05:20:20.433Z,99.99
2022-09-07T05:21:19.857Z,99.99
2022-09-07T05:22:19.880Z,99.99
2022-09-07T05:23:19.840Z,99.99
2022-09-07T05:24:19.840Z,99.99
2022-09-07T05:25:19.818Z,99.99
2022-09-07T05:26:19.810Z,99.99
2022-09-07T05:27:19.780Z,99.99
2022-09-07T05:28:19.786Z,99.99
2022-09-07T05:31:20.877Z,99.99
2022-09-07T05:32:19.731Z,99.99
2022-09-07T05:33:19.811Z,99.99
2022-09-07T05:34:34.998Z,99.99
2022-09-07T05:35:20.685Z,99.99
2022-09-07T05:36:19.684Z,99.99
2022-09-07T05:37:19.675Z,99.99
2022-09-07T05:38:19.663Z,99.99
2022-09-07T05:39:19.673Z,99.99
2022-09-07T05:40:19.635Z,99.99
2022-09-07T05:41:19.625Z,99.99
2022-09-07T05:42:19.603Z,99.99
2022-09-07T05:43:19.630Z,99.99
2022-09-07T05:45:20.575Z,99.99
2022-09-07T05:46:19.627Z,99.99
2022-09-07T05:47:19.554Z,99.99
2022-09-07T05:48:19.556Z,99.99
2022-09-07T05:49:19.540Z,99.99
2022-09-07T05:50:19.515Z,99.99
2022-09-07T05:51:19.506Z,99.99
2022-09-07T05:52:19.491Z,99.99
2022-09-07T05:53:19.486Z,99.99
2022-09-07T05:54:19.487Z,99.99
2022-09-07T05:55:29.989Z,99.99
2022-09-07T05:56:20.436Z,99.99
2022-09-07T05:57:19.427Z,99.99
2022-09-07T05:58:19.419Z,99.99
2022-09-07T05:59:19.428Z,99.99
2022-09-07T06:00:19.400Z,99.99
2022-09-07T06:01:19.381Z,99.99
2022-09-07T06:02:19.450Z,99.99
2022-09-07T06:03:19.500Z,99.99
2022-09-07T06:04:19.358Z,99.99
2022-09-07T06:05:19.348Z,99.99
2022-09-07T06:06:19.344Z,99.99
2022-09-07T06:07:23.245Z,99.99
2022-09-07T06:08:19.299Z,99.99
2022-09-07T06:09:19.400Z,99.99
2022-09-07T06:11:20.260Z,99.99
2022-09-07T06:12:19.250Z,99.99
2022-09-07T06:13:19.255Z,99.99
2022-09-07T06:14:19.243Z,99.99
2022-09-07T06:15:19.221Z,99.99
2022-09-07T06:16:19.270Z,99.99
2022-09-07T06:17:19.201Z,99.99
2022-09-07T06:18:19.198Z,99.99
2022-09-07T06:19:19.189Z,99.99
2022-09-07T06:20:19.170Z,99.99
2022-09-07T06:21:19.159Z,99.99
2022-09-07T06:22:19.136Z,99.99
2022-09-07T06:23:19.148Z,99.99
2022-09-07T06:24:19.122Z,99.99
2022-09-07T06:25:19.093Z,99.99
2022-09-07T06:26:19.095Z,99.99
2022-09-07T06:27:19.103Z,99.99
2022-09-07T06:28:19.089Z,99.99
2022-09-07T06:29:19.061Z,99.99
2022-09-07T06:30:19.043Z,99.99
2022-09-07T06:31:19.090Z,99.99
2022-09-07T06:33:22.000Z,99.99
2022-09-07T06:34:19.005Z,99.99
2022-09-07T06:35:18.984Z,99.99
2022-09-07T06:36:18.995Z,99.99
2022-09-07T06:37:18.974Z,99.99
2022-09-07T06:38:18.978Z,99.99
2022-09-07T06:39:18.948Z,99.99
2022-09-07T06:40:18.917Z,99.99
2022-09-07T06:42:19.943Z,99.99
2022-09-07T06:43:18.889Z,99.99
2022-09-07T06:44:18.898Z,99.99
2022-09-07T06:45:18.872Z,99.99
2022-09-07T06:47:19.862Z,99.99
2022-09-07T06:48:18.843Z,99.99
2022-09-07T06:49:18.828Z,99.99
2022-09-07T06:50:18.808Z,99.99
2022-09-07T06:51:18.808Z,99.99
2022-09-07T06:52:18.798Z,99.99
2022-09-07T06:53:34.156Z,99.99
2022-09-07T06:55:19.761Z,99.99
2022-09-07T06:56:18.740Z,99.99
2022-09-07T06:57:18.750Z,99.99
2022-09-07T06:58:18.729Z,99.99
2022-09-07T06:59:18.711Z,99.99
2022-09-07T07:00:18.701Z,99.99
2022-09-07T07:01:18.755Z,99.99
2022-09-07T07:02:18.681Z,99.99
2022-09-07T07:03:18.705Z,99.99
2022-09-07T07:04:18.673Z,99.99
2022-09-07T07:05:18.657Z,99.99
2022-09-07T07:06:18.630Z,99.99
2022-09-07T07:07:18.629Z,99.99
2022-09-07T07:08:18.614Z,99.99
2022-09-07T07:09:18.618Z,99.99
2022-09-07T07:10:23.641Z,99.99
2022-09-07T07:11:19.582Z,99.99
2022-09-07T07:13:49.583Z,99.99
2022-09-07T07:14:49.620Z,99.99
2022-09-07T07:15:49.523Z,99.99
2022-09-07T07:16:49.587Z,99.99
2022-09-07T07:17:58.192Z,99.99
2022-09-07T07:18:50.607Z,99.99
2022-09-07T07:19:49.483Z,99.99
2022-09-07T07:20:49.477Z,99.99
2022-09-07T07:22:10.916Z,99.99
2022-09-07T07:22:50.541Z,99.99
2022-09-07T07:23:49.434Z,99.99
2022-09-07T07:24:49.453Z,99.99
2022-09-07T07:25:49.405Z,99.99
2022-09-07T07:26:49.406Z,99.99
2022-09-07T07:27:49.539Z,99.99
2022-09-07T07:29:04.761Z,99.99
2022-09-07T07:29:50.376Z,99.99
2022-09-07T07:30:49.360Z,99.99
2022-09-07T07:31:49.336Z,99.99
2022-09-07T07:32:49.348Z,99.99
2022-09-07T07:33:49.384Z,99.99
2022-09-07T07:34:49.319Z,99.99
2022-09-07T07:35:49.314Z,99.99
2022-09-07T07:36:49.299Z,99.99
2022-09-07T07:37:49.383Z,99.99
2022-09-07T07:39:04.774Z,99.99
2022-09-07T07:41:53.809Z,99.05
2022-09-07T07:42:50.228Z,99.21
2022-09-07T07:43:49.200Z,99.31
2022-09-07T07:44:49.239Z,99.41
2022-09-07T07:46:49.290Z,98.71
2022-09-07T07:47:49.160Z,98.71
2022-09-07T07:48:49.155Z,98.60
2022-09-07T07:49:49.644Z,98.66
2022-09-07T07:50:49.140Z,98.76
2022-09-07T07:52:50.520Z,96.85
2022-09-07T07:53:49.127Z,95.84
2022-09-07T07:54:49.112Z,96.15
2022-09-07T07:55:49.088Z,96.60
2022-09-07T07:56:49.071Z,96.60
2022-09-07T07:57:49.081Z,96.70
2022-09-07T07:58:49.034Z,96.30
2022-09-07T07:59:49.041Z,96.30
2022-09-07T08:00:56.986Z,96.00
2022-09-07T08:01:50.198Z,95.20
2022-09-07T08:02:49.067Z,95.10
2022-09-07T08:03:48.994Z,94.05
2022-09-07T08:04:48.988Z,94.55
2022-09-07T08:05:48.946Z,93.74
2022-09-07T08:06:48.973Z,92.84
2022-09-07T08:07:48.926Z,92.44
2022-09-07T08:08:48.936Z,92.20
2022-09-07T08:09:48.931Z,91.89
2022-09-07T08:10:48.908Z,91.50
2022-09-07T08:11:48.885Z,91.80
2022-09-07T08:12:48.880Z,92.50
2022-09-07T08:13:48.867Z,92.10
2022-09-07T08:14:49.083Z,92.30
2022-09-07T08:15:49.189Z,91.96
2022-09-07T08:16:48.860Z,91.35
2022-09-07T08:17:48.884Z,91.61
2022-09-07T08:18:48.826Z,92.41
2022-09-07T08:19:48.807Z,92.11
2022-09-07T08:20:48.832Z,92.31
2022-09-07T08:21:48.795Z,92.36
2022-09-07T08:22:48.749Z,89.70
2022-09-07T08:23:48.752Z,90.16
2022-09-07T08:24:48.748Z,90.06
2022-09-07T08:25:48.720Z,90.56
2022-09-07T08:26:48.710Z,90.06
2022-09-07T08:27:48.740Z,89.96
2022-09-07T08:28:48.697Z,89.62
2022-09-07T08:29:48.688Z,89.32
2022-09-07T08:30:48.691Z,89.62
2022-09-07T08:31:48.911Z,89.52
2022-09-07T08:32:48.632Z,89.12
2022-09-07T08:33:48.652Z,89.52
2022-09-07T08:34:48.641Z,88.56
2022-09-07T08:35:48.610Z,88.16
2022-09-07T08:36:48.607Z,89.46
2022-09-07T08:37:48.612Z,89.46
2022-09-07T08:38:48.573Z,88.76
2022-09-07T08:39:48.677Z,89.06
2022-09-07T08:40:48.574Z,89.52
2022-09-07T08:41:48.531Z,90.22
2022-09-07T08:42:48.544Z,90.72
2022-09-07T08:43:49.324Z,88.92
2022-09-07T08:44:48.523Z,88.92
2022-09-07T08:45:48.495Z,89.82
2022-09-07T08:46:48.548Z,88.32
2022-09-07T08:47:48.503Z,87.52
2022-09-07T08:48:48.465Z,87.12
2022-09-07T08:49:48.474Z,87.21
2022-09-07T08:50:48.437Z,87.52
2022-09-07T08:51:48.426Z,87.37
2022-09-07T08:52:48.437Z,87.48
2022-09-07T08:53:48.409Z,85.82
2022-09-07T08:54:48.389Z,86.32
2022-09-07T08:55:48.407Z,87.82
2022-09-07T08:57:49.368Z,88.62
2022-09-07T08:58:49.809Z,88.62
2022-09-07T08:59:48.339Z,88.62
2022-09-07T09:00:48.667Z,89.07
2022-09-07T09:02:27.076Z,88.18
2022-09-07T09:05:49.385Z,89.07
2022-09-07T09:06:48.352Z,87.77
2022-09-07T09:07:48.261Z,87.77
2022-09-07T09:08:48.302Z,87.18
2022-09-07T09:09:48.241Z,86.53
2022-09-07T09:10:48.220Z,86.18
2022-09-07T09:11:48.211Z,86.27
2022-09-07T09:12:48.192Z,87.68
2022-09-07T09:13:48.182Z,87.53
2022-09-07T09:14:48.182Z,85.93
2022-09-07T09:15:48.217Z,84.13
2022-09-07T09:16:48.152Z,84.09
2022-09-07T09:17:48.133Z,84.89
2022-09-07T09:18:48.124Z,85.19
2022-09-07T09:19:48.124Z,84.05
2022-09-07T09:20:48.113Z,84.25
2022-09-07T09:21:48.084Z,85.65
2022-09-07T09:22:48.085Z,82.85
2022-09-07T09:23:48.098Z,82.51
2022-09-07T09:24:48.095Z,82.71
2022-09-07T09:25:48.036Z,82.81
2022-09-07T09:26:48.057Z,83.11
2022-09-07T09:27:48.057Z,82.97
2022-09-07T09:28:48.006Z,82.77
2022-09-07T09:29:47.996Z,83.87
2022-09-07T09:30:48.051Z,82.37
2022-09-07T09:31:47.976Z,82.17
2022-09-07T09:32:47.978Z,81.24
2022-09-07T09:33:47.988Z,81.40
2022-09-07T09:34:47.928Z,81.10
2022-09-07T09:35:47.928Z,82.29
2022-09-07T09:36:47.909Z,81.04
2022-09-07T09:37:47.942Z,81.13
2022-09-07T09:38:47.888Z,81.54
2022-09-07T09:39:50.985Z,80.74
2022-09-07T09:40:48.882Z,79.54
2022-09-07T09:41:47.859Z,79.34
2022-09-07T09:42:47.850Z,80.74
2022-09-07T09:43:47.831Z,80.83
2022-09-07T09:44:47.838Z,81.13
2022-09-07T09:47:29.560Z,80.40
2022-09-07T09:47:48.833Z,79.20
2022-09-07T09:48:47.782Z,79.10
2022-09-07T09:49:47.804Z,78.20
2022-09-07T09:52:51.809Z,77.74
2022-09-07T09:53:47.732Z,79.94
2022-09-07T09:54:47.724Z,78.68
2022-09-07T09:55:47.693Z,79.38
2022-09-07T09:56:47.703Z,80.27
2022-09-07T09:59:04.828Z,81.27
2022-09-07T09:59:58.164Z,80.08
2022-09-07T10:03:57.352Z,80.18
2022-09-07T10:04:48.598Z,79.38
2022-09-07T10:05:47.587Z,78.94
2022-09-07T10:06:47.586Z,78.34
2022-09-07T10:07:47.567Z,78.14
2022-09-07T10:08:47.578Z,77.84
2022-09-07T10:09:47.539Z,77.34
2022-09-07T10:10:47.547Z,77.64
2022-09-07T10:12:48.509Z,77.38
2022-09-07T10:13:47.488Z,79.88
2022-09-07T10:14:47.509Z,80.68
2022-09-07T10:15:47.502Z,79.88
2022-09-07T10:16:47.463Z,80.38
2022-09-07T10:17:47.470Z,78.84
2022-09-07T10:18:47.439Z,77.25
2022-09-07T10:19:47.450Z,77.01
2022-09-07T10:20:47.431Z,77.47
2022-09-07T10:21:47.412Z,76.07
2022-09-07T10:22:51.316Z,76.47
2022-09-07T10:23:47.380Z,75.84
2022-09-07T10:24:47.402Z,75.44
2022-09-07T10:25:47.366Z,76.37
2022-09-07T10:26:47.352Z,75.74
2022-09-07T10:27:47.351Z,75.94
2022-09-07T10:29:48.303Z,75.64
2022-09-07T10:30:47.379Z,77.37
2022-09-07T10:31:47.324Z,76.81
2022-09-07T10:32:47.534Z,77.97
2022-09-07T10:34:25.732Z,75.78
2022-09-07T10:34:48.254Z,76.43
2022-09-07T10:35:47.807Z,75.34
2022-09-07T10:36:47.275Z,75.44
2022-09-07T10:37:47.214Z,75.14
2022-09-07T10:38:47.213Z,75.54
2022-09-07T10:39:47.198Z,75.20
2022-09-07T10:40:47.208Z,75.10
2022-09-07T10:41:47.177Z,75.20
2022-09-07T10:43:48.176Z,76.17
2022-09-07T10:44:47.138Z,75.46
2022-09-07T10:45:47.155Z,74.77
2022-09-07T10:47:02.557Z,73.57
2022-09-07T10:47:48.108Z,74.17
2022-09-07T10:48:47.088Z,74.37
2022-09-07T10:50:48.070Z,73.47
2022-09-07T10:51:47.059Z,73.57
2022-09-07T10:52:47.070Z,73.18
2022-09-07T10:53:47.245Z,72.71
2022-09-07T10:54:47.031Z,72.71
2022-09-07T10:55:47.044Z,72.22
2022-09-07T10:56:47.000Z,72.41
2022-09-07T10:57:49.301Z,72.71
2022-09-07T10:59:03.488Z,72.52
2022-09-07T11:00:48.233Z,72.55
2022-09-07T11:01:47.004Z,72.95
2022-09-07T11:03:24.790Z,72.75
2022-09-07T11:03:47.971Z,73.85
2022-09-07T11:04:46.926Z,73.35
2022-09-07T11:05:46.913Z,73.05
2022-09-07T11:06:46.874Z,73.74
2022-09-07T11:07:46.887Z,73.94
2022-09-07T11:09:47.844Z,73.44
2022-09-07T11:10:46.856Z,73.35
2022-09-07T11:12:03.339Z,72.55
2022-09-07T11:12:47.805Z,73.14
2022-09-07T11:14:09.377Z,73.05
2022-09-07T11:14:47.806Z,73.74
2022-09-07T11:15:46.826Z,73.65
2022-09-07T11:16:53.954Z,72.85
2022-09-07T11:17:52.556Z,73.85
2022-09-07T11:18:47.747Z,73.25
2022-09-07T11:19:46.727Z,72.15
2022-09-07T11:20:47.018Z,72.15
2022-09-07T11:22:02.062Z,72.15
2022-09-07T11:22:47.729Z,72.11
2022-09-07T11:23:46.720Z,72.71
2022-09-07T11:24:47.225Z,72.52
2022-09-07T11:25:46.880Z,72.22
2022-09-07T11:26:46.649Z,72.02
2022-09-07T11:27:46.660Z,72.52
2022-09-07T11:28:47.181Z,71.32
2022-09-07T11:29:46.620Z,72.91
2022-09-07T11:30:46.656Z,72.18
2022-09-07T11:31:46.590Z,71.58
2022-09-07T11:32:46.581Z,70.49
2022-09-07T11:34:23.691Z,70.59
2022-09-07T11:34:47.561Z,70.56
2022-09-07T11:35:46.572Z,71.45
2022-09-07T11:36:46.554Z,70.15
2022-09-07T11:37:46.517Z,69.66
2022-09-07T11:38:46.517Z,69.43
2022-09-07T11:39:46.564Z,69.62
2022-09-07T11:40:46.502Z,69.43
2022-09-07T11:41:46.483Z,68.70
2022-09-07T11:42:46.466Z,68.86
2022-09-07T11:43:46.444Z,69.06
2022-09-07T11:44:46.450Z,68.07
2022-09-07T11:45:46.465Z,68.57
2022-09-07T11:46:46.468Z,68.73
2022-09-07T11:47:46.414Z,68.83
2022-09-07T11:48:46.406Z,68.40
2022-09-07T11:49:51.487Z,68.20
2022-09-07T11:50:47.388Z,68.40
2022-09-07T11:51:46.376Z,67.50
2022-09-07T11:52:46.347Z,68.30
2022-09-07T11:53:46.345Z,68.10
2022-09-07T11:54:46.348Z,67.71
2022-09-07T11:55:46.319Z,67.50
2022-09-07T11:56:46.307Z,66.88
2022-09-07T11:57:46.360Z,68.16
2022-09-07T11:58:46.270Z,67.47
2022-09-07T11:59:46.279Z,67.34
2022-09-07T12:00:46.272Z,67.01
2022-09-07T12:01:46.240Z,66.88
2022-09-07T12:02:58.821Z,65.78
2022-09-07T12:03:47.326Z,64.56
2022-09-07T12:04:46.232Z,64.67
2022-09-07T12:05:46.214Z,65.36
2022-09-07T12:06:46.200Z,65.36
2022-09-07T12:07:46.181Z,64.07
2022-09-07T12:08:46.161Z,63.87
2022-09-07T12:09:46.182Z,63.18
2022-09-07T12:10:46.165Z,62.21
2022-09-07T12:11:46.133Z,64.30
2022-09-07T12:12:46.133Z,64.00
2022-09-07T12:13:46.113Z,63.80
2022-09-07T12:14:46.130Z,64.00
2022-09-07T12:15:46.165Z,64.07
2022-09-07T12:16:46.089Z,63.57
2022-09-07T12:17:46.064Z,63.60
2022-09-07T12:18:46.058Z,64.00
2022-09-07T12:19:46.048Z,63.80
2022-09-07T12:20:46.065Z,63.51
2022-09-07T12:21:46.026Z,63.31
2022-09-07T12:22:46.028Z,63.60
2022-09-07T12:23:45.998Z,63.90
2022-09-07T12:24:46.007Z,63.77
2022-09-07T12:25:46.014Z,64.99
2022-09-07T12:26:45.968Z,64.89
2022-09-07T12:27:46.035Z,63.51
2022-09-07T12:28:45.956Z,62.78
2022-09-07T12:29:45.938Z,63.08
2022-09-07T12:30:45.999Z,62.88
2022-09-07T12:31:57.670Z,63.31
2022-09-07T12:32:55.241Z,63.54
2022-09-07T12:33:46.927Z,64.43
2022-09-07T12:34:45.909Z,63.43
2022-09-07T12:35:45.878Z,64.00
2022-09-07T12:36:45.882Z,62.71
2022-09-07T12:37:45.860Z,62.94
2022-09-07T12:38:45.842Z,63.34
2022-09-07T12:39:45.910Z,63.34
2022-09-07T12:40:45.830Z,64.16
2022-09-07T12:41:47.388Z,64.36
2022-09-07T12:42:45.792Z,64.76
2022-09-07T12:43:45.782Z,63.37
2022-09-07T12:44:45.773Z,63.86
2022-09-07T12:45:45.773Z,64.66
2022-09-07T12:46:46.653Z,65.25
2022-09-07T12:47:45.890Z,64.16
2022-09-07T12:48:45.727Z,64.76
2022-09-07T12:49:45.723Z,64.43
2022-09-07T12:50:45.705Z,63.24
2022-09-07T12:52:09.098Z,62.81
2022-09-07T12:52:46.685Z,63.31
2022-09-07T12:53:45.736Z,63.54
2022-09-07T12:54:45.666Z,63.80
2022-09-07T12:56:46.905Z,62.61
2022-09-07T12:57:45.644Z,62.91
2022-09-07T12:58:45.642Z,63.10
2022-09-07T12:59:45.609Z,64.00
2022-09-07T13:00:45.607Z,63.51
2022-09-07T13:01:45.702Z,63.28
2022-09-07T13:02:45.652Z,61.89
2022-09-07T13:03:52.802Z,61.99
2022-09-07T13:04:46.550Z,61.99
2022-09-07T13:05:45.580Z,61.46
2022-09-07T13:07:46.527Z,62.23
2022-09-07T13:08:45.511Z,62.32
2022-09-07T13:09:45.501Z,62.39
2022-09-07T13:10:45.514Z,60.71
2022-09-07T13:11:45.774Z,60.61
2022-09-07T13:12:53.192Z,61.00
2022-09-07T13:14:04.181Z,61.04
2022-09-07T13:14:46.462Z,60.54
2022-09-07T13:15:45.483Z,61.07
2022-09-07T13:17:46.403Z,62.38
2022-09-07T13:18:45.394Z,62.41
2022-09-07T13:19:45.394Z,62.31
2022-09-07T13:20:45.383Z,62.02
2022-09-07T13:21:45.364Z,62.81
2022-09-07T13:22:45.631Z,63.31
2022-09-07T13:23:45.726Z,62.05
2022-09-07T13:24:46.393Z,62.34
2022-09-07T13:25:45.332Z,62.21